createdAt,value
2017-08-12T00:01:18.119Z,92.90
2017-08-12T00:03:46.790Z,92.60
2017-08-12T00:06:14.486Z,92.50
2017-08-12T00:08:42.139Z,92.40
2017-08-12T00:11:09.835Z,92.30
2017-08-12T00:13:37.492Z,92.30
2017-08-12T00:16:05.192Z,92.20
2017-08-12T00:18:32.858Z,92.50
2017-08-12T00:21:01.323Z,92.60
2017-08-12T00:23:28.982Z,92.60
2017-08-12T00:25:56.679Z,92.90
2017-08-12T00:28:24.334Z,93.00
2017-08-12T00:30:52.002Z,93.60
2017-08-12T00:33:19.722Z,93.40
2017-08-12T00:35:47.386Z,92.90
2017-08-12T00:38:15.092Z,93.00
2017-08-12T00:40:42.786Z,93.00
2017-08-12T00:43:10.490Z,93.20
2017-08-12T00:45:38.167Z,93.30
2017-08-12T00:48:05.906Z,93.00
2017-08-12T00:50:34.377Z,92.70
2017-08-12T00:53:02.859Z,92.70
2017-08-12T00:55:31.326Z,92.80
2017-08-12T00:57:59.074Z,92.70
2017-08-12T01:00:26.803Z,92.60
2017-08-12T01:02:54.531Z,91.90
2017-08-12T01:05:22.207Z,91.50
2017-08-12T01:07:49.907Z,91.00
2017-08-12T01:10:17.571Z,91.00
2017-08-12T01:12:45.271Z,90.80
2017-08-12T01:15:12.922Z,89.90
2017-08-12T01:17:41.380Z,86.80
2017-08-12T01:20:09.802Z,88.30
2017-08-12T01:22:37.496Z,87.80
2017-08-12T01:25:05.140Z,87.70
2017-08-12T01:27:32.827Z,88.10
2017-08-12T01:30:00.476Z,88.90
2017-08-12T01:32:28.175Z,90.40
2017-08-12T01:34:56.588Z,90.60
2017-08-12T01:37:24.244Z,90.50
2017-08-12T01:39:51.939Z,90.80
2017-08-12T01:42:19.599Z,90.70
2017-08-12T01:44:47.285Z,90.60
2017-08-12T01:47:15.707Z,90.30
2017-08-12T01:49:43.395Z,90.30
2017-08-12T01:52:11.059Z,90.20
2017-08-12T01:54:38.758Z,90.70
2017-08-12T01:57:06.406Z,90.80
2017-08-12T01:59:34.090Z,90.60
2017-08-12T02:02:01.739Z,90.80
2017-08-12T02:04:29.433Z,90.30
2017-08-12T02:06:57.082Z,90.40
2017-08-12T02:09:24.779Z,90.90
2017-08-12T02:11:52.431Z,90.80
2017-08-12T02:14:20.123Z,90.30
2017-08-12T02:16:47.771Z,90.80
2017-08-12T02:19:16.231Z,91.60
2017-08-12T02:21:43.888Z,91.30
2017-08-12T02:24:11.579Z,91.30
2017-08-12T02:26:39.995Z,91.60
2017-08-12T02:29:07.713Z,91.60
2017-08-12T02:31:35.373Z,91.70
2017-08-12T02:34:03.831Z,91.60
2017-08-12T02:36:31.486Z,91.60
2017-08-12T02:38:59.223Z,91.50
2017-08-12T02:41:26.887Z,91.50
2017-08-12T02:43:54.549Z,91.70
2017-08-12T02:46:22.250Z,91.90
2017-08-12T02:48:50.667Z,91.70
2017-08-12T02:51:19.683Z,91.70
2017-08-12T02:53:47.399Z,91.80
2017-08-12T02:56:15.095Z,91.90
2017-08-12T02:58:42.748Z,92.00
2017-08-12T03:01:10.443Z,92.20
2017-08-12T03:03:38.863Z,92.10
2017-08-12T03:06:06.560Z,92.10
2017-08-12T03:08:34.219Z,92.20
2017-08-12T03:11:01.906Z,92.20
2017-08-12T03:13:30.327Z,92.30
2017-08-12T03:15:58.024Z,92.30
2017-08-12T03:18:25.674Z,92.60
2017-08-12T03:20:53.367Z,92.60
2017-08-12T03:23:21.786Z,92.70
2017-08-12T03:25:49.483Z,92.70
2017-08-12T03:28:17.139Z,91.90
2017-08-12T03:30:44.831Z,91.80
2017-08-12T03:33:12.487Z,91.90
2017-08-12T03:35:40.183Z,91.90
2017-08-12T03:38:07.836Z,91.70
2017-08-12T03:40:35.530Z,91.60
2017-08-12T03:43:03.179Z,91.80
2017-08-12T03:45:30.890Z,91.80
2017-08-12T03:47:58.542Z,91.90
2017-08-12T03:50:26.963Z,92.10
2017-08-12T03:52:54.659Z,92.10
2017-08-12T03:55:22.319Z,92.20
2017-08-12T03:57:50.019Z,92.30
2017-08-12T04:00:17.676Z,92.40
2017-08-12T04:02:45.382Z,92.30
2017-08-12T04:05:13.048Z,92.30
2017-08-12T04:07:40.751Z,92.50
2017-08-12T04:10:10.279Z,92.20
2017-08-12T04:12:39.703Z,92.90
2017-08-12T04:15:09.949Z,92.90
2017-08-12T04:17:40.194Z,92.50
2017-08-12T04:20:10.333Z,92.50
2017-08-12T04:22:39.411Z,92.60
2017-08-12T04:25:08.233Z,92.50
2017-08-12T04:27:37.156Z,92.60
2017-08-12T04:30:07.484Z,92.60
2017-08-12T04:32:37.330Z,92.60
2017-08-12T04:35:05.916Z,92.70
2017-08-12T04:37:33.610Z,92.70
2017-08-12T04:40:01.263Z,92.50
2017-08-12T04:42:28.954Z,92.10
2017-08-12T04:44:57.366Z,92.60
2017-08-12T04:47:25.062Z,92.50
2017-08-12T04:49:52.710Z,92.20
2017-08-12T04:52:20.406Z,92.40
2017-08-12T04:54:48.818Z,92.30
2017-08-12T04:57:16.728Z,92.30
2017-08-12T04:59:44.427Z,92.10
2017-08-12T05:02:12.078Z,92.20
2017-08-12T05:04:40.543Z,91.90
2017-08-12T05:07:08.965Z,91.40
2017-08-12T05:09:36.706Z,91.40
2017-08-12T05:12:04.358Z,91.50
2017-08-12T05:14:32.058Z,91.80
2017-08-12T05:16:59.706Z,92.10
2017-08-12T05:19:27.401Z,92.20
2017-08-12T05:21:55.059Z,92.30
2017-08-12T05:24:22.754Z,92.30
2017-08-12T05:26:50.406Z,92.20
2017-08-12T05:29:18.859Z,92.10
2017-08-12T05:31:46.510Z,92.10
2017-08-12T05:34:14.203Z,92.40
2017-08-12T05:36:42.621Z,92.00
2017-08-12T05:39:10.312Z,92.00
2017-08-12T05:41:37.980Z,91.90
2017-08-12T05:44:05.688Z,92.00
2017-08-12T05:46:33.361Z,92.20
2017-08-12T05:49:01.055Z,91.60
2017-08-12T05:51:28.712Z,91.70
2017-08-12T05:53:56.410Z,91.60
2017-08-12T05:56:24.068Z,91.20
2017-08-12T05:58:51.722Z,91.30
2017-08-12T06:01:19.419Z,91.40
2017-08-12T06:03:47.075Z,91.20
2017-08-12T06:06:14.771Z,91.60
2017-08-12T06:08:42.427Z,91.90
2017-08-12T06:11:10.125Z,91.60
2017-08-12T06:13:37.784Z,91.40
2017-08-12T06:16:05.479Z,91.40
2017-08-12T06:18:33.130Z,91.80
2017-08-12T06:21:00.818Z,91.70
2017-08-12T06:23:28.471Z,91.60
2017-08-12T06:25:56.168Z,90.80
2017-08-12T06:28:24.583Z,90.80
2017-08-12T06:30:52.286Z,90.80
2017-08-12T06:33:19.938Z,91.20
2017-08-12T06:35:47.631Z,90.80
2017-08-12T06:38:15.283Z,90.50
2017-08-12T06:40:43.742Z,90.10
2017-08-12T06:43:11.402Z,90.10
2017-08-12T06:45:39.091Z,90.10
2017-08-12T06:48:06.734Z,90.20
2017-08-12T06:50:35.198Z,90.80
2017-08-12T06:53:02.862Z,90.80
2017-08-12T06:55:30.584Z,91.10
2017-08-12T06:57:58.235Z,90.80
2017-08-12T07:00:25.890Z,90.50
2017-08-12T07:02:53.589Z,90.30
2017-08-12T07:05:21.243Z,90.50
2017-08-12T07:07:48.940Z,90.70
2017-08-12T07:10:17.370Z,90.90
2017-08-12T07:12:45.066Z,90.90
2017-08-12T07:15:13.483Z,90.60
2017-08-12T07:17:41.182Z,90.60
2017-08-12T07:20:09.733Z,90.50
2017-08-12T07:22:37.422Z,90.50
2017-08-12T07:25:05.075Z,90.70
2017-08-12T07:27:32.770Z,90.90
2017-08-12T07:30:01.191Z,91.00
2017-08-12T07:32:28.886Z,91.00
2017-08-12T07:34:56.539Z,91.20
2017-08-12T07:37:24.239Z,90.80
2017-08-12T07:39:51.923Z,91.10
2017-08-12T07:42:19.625Z,91.30
2017-08-12T07:44:47.279Z,91.30
2017-08-12T07:47:14.978Z,91.10
2017-08-12T07:49:42.632Z,91.30
2017-08-12T07:52:10.330Z,90.90
2017-08-12T07:54:37.987Z,91.10
2017-08-12T07:57:05.683Z,90.70
2017-08-12T07:59:33.344Z,90.70
2017-08-12T08:02:01.810Z,90.70
2017-08-12T08:04:29.468Z,90.70
2017-08-12T08:06:57.183Z,90.80
2017-08-12T08:09:24.836Z,91.00
2017-08-12T08:11:52.487Z,90.90
2017-08-12T08:14:20.182Z,90.30
2017-08-12T08:16:47.826Z,90.10
2017-08-12T08:19:15.519Z,90.10
2017-08-12T08:21:43.174Z,89.70
2017-08-12T08:24:10.867Z,89.10
2017-08-12T08:26:39.286Z,88.00
2017-08-12T08:29:06.984Z,87.90
2017-08-12T08:31:34.643Z,88.40
2017-08-12T08:34:02.336Z,88.80
2017-08-12T08:36:30.767Z,87.10
2017-08-12T08:38:58.472Z,87.00
2017-08-12T08:41:26.886Z,87.40
2017-08-12T08:43:54.579Z,87.30
2017-08-12T08:46:22.238Z,86.80
2017-08-12T08:48:49.928Z,85.10
2017-08-12T08:51:18.343Z,85.90
2017-08-12T08:53:46.040Z,85.80
2017-08-12T08:56:13.689Z,84.70
2017-08-12T08:58:41.382Z,85.70
2017-08-12T09:01:09.798Z,84.40
2017-08-12T09:03:37.506Z,84.40
2017-08-12T09:06:05.934Z,86.90
2017-08-12T09:08:33.588Z,86.20
2017-08-12T09:11:01.279Z,84.30
2017-08-12T09:13:28.922Z,82.70
2017-08-12T09:15:56.611Z,82.10
2017-08-12T09:18:24.263Z,82.50
2017-08-12T09:20:51.963Z,81.00
2017-08-12T09:23:19.648Z,81.00
2017-08-12T09:25:47.334Z,80.50
2017-08-12T09:28:14.999Z,80.00
2017-08-12T09:30:42.688Z,79.20
2017-08-12T09:33:11.103Z,80.90
2017-08-12T09:35:38.791Z,80.80
2017-08-12T09:38:06.433Z,81.10
2017-08-12T09:40:34.119Z,79.80
2017-08-12T09:43:01.769Z,78.60
2017-08-12T09:45:29.459Z,77.40
2017-08-12T09:47:57.875Z,78.30
2017-08-12T09:50:25.567Z,77.60
2017-08-12T09:52:53.214Z,78.60
2017-08-12T09:55:20.903Z,79.00
2017-08-12T09:57:48.556Z,79.60
2017-08-12T10:00:16.248Z,79.30
2017-08-12T10:02:43.889Z,77.60
2017-08-12T10:05:12.360Z,78.50
2017-08-12T10:07:40.775Z,78.70
2017-08-12T10:10:08.483Z,78.60
2017-08-12T10:12:36.139Z,77.20
2017-08-12T10:15:03.802Z,76.20
2017-08-12T10:17:31.490Z,75.20
2017-08-12T10:19:59.143Z,75.90
2017-08-12T10:22:27.598Z,77.20
2017-08-12T10:24:55.244Z,77.20
2017-08-12T10:27:22.931Z,74.60
2017-08-12T10:29:50.574Z,75.10
2017-08-12T10:32:18.259Z,73.40
2017-08-12T10:34:46.683Z,74.70
2017-08-12T10:37:14.384Z,74.60
2017-08-12T10:39:42.036Z,76.00
2017-08-12T10:42:09.728Z,75.90
2017-08-12T10:44:37.371Z,75.70
2017-08-12T10:47:05.827Z,75.60
2017-08-12T10:49:33.475Z,75.60
2017-08-12T10:52:01.179Z,77.10
2017-08-12T10:54:29.611Z,76.90
2017-08-12T10:56:57.303Z,76.90
2017-08-12T10:59:25.723Z,77.80
2017-08-12T11:01:53.412Z,77.80
2017-08-12T11:04:21.068Z,77.10
2017-08-12T11:06:48.763Z,77.90
2017-08-12T11:09:17.178Z,79.30
2017-08-12T11:11:44.823Z,79.20
2017-08-12T11:14:12.520Z,79.60
2017-08-12T11:16:40.231Z,79.60
2017-08-12T11:19:07.944Z,81.40
2017-08-12T11:21:35.599Z,82.10
2017-08-12T11:24:03.287Z,81.50
2017-08-12T11:26:30.962Z,82.10
2017-08-12T11:28:59.410Z,85.30
2017-08-12T11:31:27.060Z,85.20
2017-08-12T11:33:54.752Z,85.50
2017-08-12T11:36:23.162Z,85.90
2017-08-12T11:38:50.852Z,85.20
2017-08-12T11:41:18.497Z,85.80
2017-08-12T11:43:46.182Z,86.20
2017-08-12T11:46:13.822Z,85.70
2017-08-12T11:48:41.515Z,86.00
2017-08-12T11:51:09.167Z,86.20
2017-08-12T11:53:36.851Z,86.90
2017-08-12T11:56:05.271Z,87.50
2017-08-12T11:58:32.967Z,87.40
2017-08-12T12:01:00.622Z,86.20
2017-08-12T12:03:28.317Z,86.20
2017-08-12T12:05:56.732Z,85.60
2017-08-12T12:08:24.424Z,85.50
2017-08-12T12:10:52.088Z,85.60
2017-08-12T12:13:19.787Z,86.10
2017-08-12T12:15:47.431Z,84.60
2017-08-12T12:18:15.898Z,84.80
2017-08-12T12:20:44.320Z,82.30
2017-08-12T12:23:11.972Z,82.30
2017-08-12T12:25:39.659Z,83.80
2017-08-12T12:28:07.312Z,84.50
2017-08-12T12:30:34.994Z,83.40
2017-08-12T12:33:02.644Z,81.60
2017-08-12T12:35:30.332Z,82.30
2017-08-12T12:37:58.745Z,81.50
2017-08-12T12:40:26.438Z,81.40
2017-08-12T12:42:54.078Z,82.90
2017-08-12T12:45:21.765Z,81.40
2017-08-12T12:47:49.408Z,80.80
2017-08-12T12:50:17.094Z,81.40
2017-08-12T12:52:44.739Z,81.60
2017-08-12T12:55:12.424Z,81.90
2017-08-12T12:57:40.091Z,81.60
2017-08-12T13:00:08.563Z,80.80
2017-08-12T13:02:36.207Z,80.80
2017-08-12T13:05:03.902Z,82.20
2017-08-12T13:07:31.553Z,80.70
2017-08-12T13:09:59.259Z,81.80
2017-08-12T13:12:26.927Z,80.40
2017-08-12T13:14:54.577Z,80.00
2017-08-12T13:17:22.258Z,80.10
2017-08-12T13:19:49.909Z,80.60
2017-08-12T13:22:17.599Z,79.80
2017-08-12T13:24:46.019Z,80.50
2017-08-12T13:27:13.717Z,80.50
2017-08-12T13:29:41.370Z,81.30
2017-08-12T13:32:09.065Z,81.80
2017-08-12T13:34:36.715Z,81.10
2017-08-12T13:37:05.171Z,80.50
2017-08-12T13:39:32.826Z,80.50
2017-08-12T13:42:00.519Z,80.60
2017-08-12T13:44:28.939Z,80.90
2017-08-12T13:46:56.632Z,80.80
2017-08-12T13:49:24.279Z,80.70
2017-08-12T13:51:51.972Z,80.70
2017-08-12T13:54:20.407Z,80.40
2017-08-12T13:56:48.099Z,80.30
2017-08-12T13:59:16.518Z,80.80
2017-08-12T14:01:44.259Z,80.70
2017-08-12T14:04:11.903Z,80.60
2017-08-12T14:06:40.359Z,80.60
2017-08-12T14:09:08.010Z,80.40
2017-08-12T14:11:35.707Z,80.50
2017-08-12T14:14:03.360Z,81.10
2017-08-12T14:16:31.778Z,81.20
2017-08-12T14:18:59.477Z,81.10
2017-08-12T14:21:27.131Z,80.90
2017-08-12T14:23:55.595Z,81.00
2017-08-12T14:26:23.268Z,81.20
2017-08-12T14:28:50.963Z,81.50
2017-08-12T14:31:18.665Z,81.40
2017-08-12T14:33:46.349Z,81.50
2017-08-12T14:36:14.003Z,81.00
2017-08-12T14:38:41.698Z,80.60
2017-08-12T14:41:09.352Z,80.50
2017-08-12T14:43:37.046Z,80.80
2017-08-12T14:46:04.703Z,80.70
2017-08-12T14:48:32.402Z,81.50
2017-08-12T14:51:00.082Z,81.60
2017-08-12T14:53:28.539Z,80.90
2017-08-12T14:55:56.227Z,80.80
2017-08-12T14:58:24.683Z,81.00
2017-08-12T15:00:52.327Z,81.00
2017-08-12T15:03:20.032Z,81.90
2017-08-12T15:05:47.683Z,81.80
2017-08-12T15:08:16.139Z,83.10
2017-08-12T15:10:43.784Z,83.10
2017-08-12T15:13:11.471Z,83.80
2017-08-12T15:15:39.114Z,83.70
2017-08-12T15:18:06.775Z,83.90
2017-08-12T15:20:34.468Z,84.00
2017-08-12T15:23:02.115Z,84.50
2017-08-12T15:25:30.602Z,84.60
2017-08-12T15:27:58.248Z,84.50
2017-08-12T15:30:26.703Z,85.10
2017-08-12T15:32:54.352Z,85.10
2017-08-12T15:35:22.082Z,85.30
2017-08-12T15:37:49.727Z,85.80
2017-08-12T15:40:17.407Z,86.00
2017-08-12T15:42:45.059Z,85.50
2017-08-12T15:45:12.755Z,85.60
2017-08-12T15:47:40.416Z,85.90
2017-08-12T15:50:08.110Z,85.10
2017-08-12T15:52:36.532Z,85.40
2017-08-12T15:55:04.219Z,85.40
2017-08-12T15:57:31.871Z,85.90
2017-08-12T15:59:59.564Z,86.10
2017-08-12T16:02:27.980Z,86.40
2017-08-12T16:04:55.677Z,86.20
2017-08-12T16:07:23.355Z,86.70
2017-08-12T16:09:51.823Z,87.50
2017-08-12T16:12:20.251Z,87.30
2017-08-12T16:14:47.947Z,87.30
2017-08-12T16:17:15.608Z,86.60
2017-08-12T16:19:43.347Z,87.20
2017-08-12T16:22:11.011Z,87.60
2017-08-12T16:24:38.661Z,87.10
2017-08-12T16:27:06.358Z,87.60
2017-08-12T16:29:34.011Z,87.80
2017-08-12T16:32:01.706Z,87.10
2017-08-12T16:34:29.351Z,87.50
2017-08-12T16:36:57.812Z,88.20
2017-08-12T16:39:25.464Z,88.20
2017-08-12T16:41:53.154Z,88.10
2017-08-12T16:44:21.574Z,88.20
2017-08-12T16:46:49.274Z,88.00
2017-08-12T16:49:17.696Z,87.50
2017-08-12T16:51:45.392Z,87.50
2017-08-12T16:54:13.047Z,87.50
2017-08-12T16:56:40.743Z,87.30
2017-08-12T16:59:09.169Z,86.80
2017-08-12T17:01:36.870Z,86.80
2017-08-12T17:04:05.283Z,86.80
2017-08-12T17:06:32.980Z,86.70
2017-08-12T17:09:00.636Z,86.70
2017-08-12T17:11:28.342Z,87.20
2017-08-12T17:13:56.754Z,86.80
2017-08-12T17:16:24.451Z,86.60
2017-08-12T17:18:52.103Z,86.60
2017-08-12T17:21:19.820Z,86.40
2017-08-12T17:23:47.543Z,86.10
2017-08-12T17:26:15.965Z,86.70
2017-08-12T17:28:43.661Z,86.00
2017-08-12T17:31:11.311Z,86.20
2017-08-12T17:33:39.002Z,86.60
2017-08-12T17:36:07.458Z,86.40
2017-08-12T17:38:35.150Z,86.40
2017-08-12T17:41:03.572Z,87.00
2017-08-12T17:43:31.259Z,86.80
2017-08-12T17:45:58.906Z,86.80
2017-08-12T17:48:26.595Z,86.80
2017-08-12T17:50:55.015Z,87.10
2017-08-12T17:53:23.787Z,87.10
2017-08-12T17:55:52.612Z,87.50
2017-08-12T17:58:21.714Z,87.80
2017-08-12T18:00:50.558Z,87.80
2017-08-12T18:03:19.932Z,88.20
2017-08-12T18:05:48.748Z,88.50
2017-08-12T18:08:18.179Z,89.00
2017-08-12T18:10:46.912Z,89.50
2017-08-12T18:13:15.661Z,89.90
2017-08-12T18:15:44.219Z,90.20
2017-08-12T18:18:12.022Z,90.30
2017-08-12T18:20:40.435Z,90.50
2017-08-12T18:23:08.131Z,90.50
2017-08-12T18:25:35.779Z,90.70
2017-08-12T18:28:03.472Z,90.80
2017-08-12T18:30:31.119Z,90.90
2017-08-12T18:32:58.815Z,91.00
2017-08-12T18:35:26.459Z,91.00
2017-08-12T18:37:54.887Z,91.20
2017-08-12T18:40:22.581Z,91.20
2017-08-12T18:42:50.231Z,91.20
2017-08-12T18:45:17.922Z,91.20
2017-08-12T18:47:46.343Z,91.40
2017-08-12T18:50:14.040Z,91.30
2017-08-12T18:52:41.691Z,91.70
2017-08-12T18:55:09.393Z,91.80
2017-08-12T18:57:37.035Z,92.00
2017-08-12T19:00:05.505Z,91.80
2017-08-12T19:02:33.932Z,91.70
2017-08-12T19:05:01.623Z,91.70
2017-08-12T19:07:29.270Z,91.60
2017-08-12T19:09:56.962Z,91.50
2017-08-12T19:12:25.375Z,91.70
2017-08-12T19:14:53.067Z,91.70
2017-08-12T19:17:20.706Z,91.70
2017-08-12T19:19:48.403Z,91.80
2017-08-12T19:22:16.059Z,91.90
2017-08-12T19:24:43.751Z,91.80
2017-08-12T19:27:11.402Z,91.70
2017-08-12T19:29:39.995Z,92.00
2017-08-12T19:32:07.640Z,92.00
2017-08-12T19:34:35.343Z,91.80
2017-08-12T19:37:02.992Z,91.70
2017-08-12T19:39:30.682Z,91.60
2017-08-12T19:41:58.326Z,91.70
2017-08-12T19:44:25.983Z,91.90
2017-08-12T19:46:53.667Z,92.20
2017-08-12T19:49:21.311Z,92.00
2017-08-12T19:51:48.999Z,91.70
2017-08-12T19:54:16.663Z,91.70
2017-08-12T19:56:45.130Z,91.90
2017-08-12T19:59:12.779Z,91.90
2017-08-12T20:01:40.471Z,91.80
2017-08-12T20:04:08.887Z,91.50
2017-08-12T20:06:36.583Z,91.50
2017-08-12T20:09:04.299Z,91.50
2017-08-12T20:11:31.992Z,91.90
2017-08-12T20:13:59.634Z,91.60
2017-08-12T20:16:27.327Z,91.60
2017-08-12T20:18:54.978Z,91.70
2017-08-12T20:21:22.681Z,91.60
2017-08-12T20:23:50.364Z,91.80
2017-08-12T20:26:18.055Z,91.60
2017-08-12T20:28:45.703Z,91.60
2017-08-12T20:31:13.392Z,91.80
2017-08-12T20:33:41.038Z,91.70
2017-08-12T20:36:08.726Z,91.70
2017-08-12T20:38:37.148Z,91.80
2017-08-12T20:41:04.835Z,91.80
2017-08-12T20:43:32.483Z,91.60
2017-08-12T20:46:00.182Z,91.60
2017-08-12T20:48:28.596Z,91.60
2017-08-12T20:50:56.244Z,91.60
2017-08-12T20:53:23.932Z,91.60
2017-08-12T20:55:51.578Z,91.60
2017-08-12T20:58:19.272Z,91.50
2017-08-12T21:00:46.931Z,91.50
2017-08-12T21:03:14.619Z,91.50
2017-08-12T21:05:43.031Z,91.50
2017-08-12T21:08:10.723Z,91.50
2017-08-12T21:10:38.371Z,91.60
2017-08-12T21:13:06.054Z,91.40
2017-08-12T21:15:33.699Z,91.50
2017-08-12T21:18:01.383Z,91.40
2017-08-12T21:20:29.036Z,91.30
2017-08-12T21:22:57.504Z,91.80
2017-08-12T21:25:25.155Z,91.70
2017-08-12T21:27:52.846Z,91.60
2017-08-12T21:30:21.263Z,91.90
2017-08-12T21:32:48.954Z,92.20
2017-08-12T21:35:16.602Z,91.40
2017-08-12T21:37:44.290Z,91.10
2017-08-12T21:40:12.705Z,91.20
2017-08-12T21:42:40.408Z,91.00
2017-08-12T21:45:08.053Z,91.10
2017-08-12T21:47:35.699Z,91.00
2017-08-12T21:50:03.390Z,91.10
2017-08-12T21:52:31.035Z,90.90
2017-08-12T21:54:58.727Z,90.80
2017-08-12T21:57:27.144Z,90.90
2017-08-12T21:59:54.834Z,90.90
2017-08-12T22:02:22.478Z,90.80
2017-08-12T22:04:50.162Z,91.00
2017-08-12T22:07:17.820Z,91.10
2017-08-12T22:09:46.270Z,91.30
2017-08-12T22:12:13.914Z,91.40
2017-08-12T22:14:41.605Z,90.90
2017-08-12T22:17:09.251Z,91.10
2017-08-12T22:19:36.938Z,91.10
2017-08-12T22:22:04.583Z,91.30
2017-08-12T22:24:32.266Z,91.00
2017-08-12T22:26:59.911Z,90.60
2017-08-12T22:29:27.605Z,90.60
2017-08-12T22:31:56.023Z,90.60
2017-08-12T22:34:23.710Z,90.60
2017-08-12T22:36:51.351Z,90.70
2017-08-12T22:39:19.040Z,90.70
2017-08-12T22:41:46.692Z,90.70
2017-08-12T22:44:14.342Z,90.70
2017-08-12T22:46:42.027Z,90.70
2017-08-12T22:49:10.443Z,90.70
2017-08-12T22:51:38.129Z,90.70
2017-08-12T22:54:05.775Z,90.70
2017-08-12T22:56:33.462Z,91.00
2017-08-12T22:59:01.108Z,90.60
2017-08-12T23:01:28.800Z,90.70
2017-08-12T23:03:57.219Z,90.70
2017-08-12T23:06:24.922Z,90.70
2017-08-12T23:08:52.575Z,90.70
2017-08-12T23:11:20.267Z,90.60
2017-08-12T23:13:47.910Z,90.80
2017-08-12T23:16:15.620Z,90.70
2017-08-12T23:18:43.279Z,90.60
2017-08-12T23:21:11.066Z,90.70
2017-08-12T23:23:38.716Z,90.90
2017-08-12T23:26:06.407Z,90.80
2017-08-12T23:28:34.063Z,90.80
2017-08-12T23:31:01.747Z,90.80
2017-08-12T23:33:30.162Z,90.70
2017-08-12T23:35:57.851Z,90.70
2017-08-12T23:38:25.497Z,90.70
2017-08-12T23:40:53.191Z,90.60
2017-08-12T23:43:21.611Z,90.70
2017-08-12T23:45:49.303Z,90.70
2017-08-12T23:48:16.998Z,90.60
2017-08-12T23:50:45.410Z,90.80
2017-08-12T23:53:13.107Z,90.70
2017-08-12T23:55:40.762Z,90.60
2017-08-12T23:58:08.443Z,90.60
